5A6

Winona-Montgomery County Airport

Winona, Mississippi, USA
METAR K5A6 250055Z AUTO 14008KT 10SM SCT045 25/24 A2994 RMK AO2 T02540237
Observed Flight Rules
Sep-25 @ 00:55 UTC (20 minutes ago) Visual Flight Rules
Wind Visibility Clouds
140° at 8 knots 10 miles
  • Scattered at 4,500' AGL
Temperatures Readings
Current 25°C / 77°F
Dewpoint 24°C / 75°F
Humidity 94%
Altimeter 29.94" Hg
Pressure 1014 hPa
Elevation 111
METAR K5A6 250055Z AUTO 14008KT 10SM SCT045 25/24 A2994 RMK AO2 T02540237
Observed Flight Rules
Sep-25 @ 00:55 UTC
(20 minutes ago)
VFR
Wind Visibility
140° at 8 knots 10 miles
Clouds
  • Scattered at 4,500' AGL
Temperature Dewpoint
25°C / 77°F 24°C / 75°F
Humidity Altimeter Pressure
94% 29.94" Hg 1014 hPa